sensor_id;sensor_type;location;lat;lon;timestamp;pressure;altitude;pressure_sealevel;temperature;humidity
81641;BME280;74020;50.722;-1.944;2023-11-19T00:00:13;100581.58;;;12.40;100.00
81641;BME280;74020;50.722;-1.944;2023-11-19T00:02:38;100582.26;;;12.28;100.00
81641;BME280;74020;50.722;-1.944;2023-11-19T00:05:03;100575.17;;;12.29;100.00
81641;BME280;74020;50.722;-1.944;2023-11-19T00:07:28;100573.52;;;12.21;100.00
81641;BME280;74020;50.722;-1.944;2023-11-19T00:09:54;100574.24;;;12.28;100.00
81641;BME280;74020;50.722;-1.944;2023-11-19T00:12:20;100576.68;;;12.31;99.92
81641;BME280;74020;50.722;-1.944;2023-11-19T00:14:45;100579.22;;;12.23;100.00
81641;BME280;74020;50.722;-1.944;2023-11-19T00:17:11;100576.11;;;12.17;100.00
81641;BME280;74020;50.722;-1.944;2023-11-19T00:19:36;100579.89;;;12.22;100.00
81641;BME280;74020;50.722;-1.944;2023-11-19T00:22:02;100584.64;;;12.14;100.00
81641;BME280;74020;50.722;-1.944;2023-11-19T00:24:27;100580.83;;;12.20;100.00
81641;BME280;74020;50.722;-1.944;2023-11-19T00:26:53;100582.32;;;12.22;100.00
81641;BME280;74020;50.722;-1.944;2023-11-19T00:29:19;100582.67;;;12.24;100.00
81641;BME280;74020;50.722;-1.944;2023-11-19T00:31:45;100585.23;;;12.30;100.00
81641;BME280;74020;50.722;-1.944;2023-11-19T00:34:10;100586.92;;;12.37;99.67
81641;BME280;74020;50.722;-1.944;2023-11-19T00:36:35;100593.26;;;12.45;99.81
81641;BME280;74020;50.722;-1.944;2023-11-19T00:39:01;100587.59;;;12.36;100.00
81641;BME280;74020;50.722;-1.944;2023-11-19T00:41:26;100584.64;;;12.52;99.57
81641;BME280;74020;50.722;-1.944;2023-11-19T00:43:52;100582.99;;;12.46;100.00
81641;BME280;74020;50.722;-1.944;2023-11-19T00:46:18;100588.80;;;12.34;100.00
81641;BME280;74020;50.722;-1.944;2023-11-19T00:48:43;100587.18;;;12.43;100.00
81641;BME280;74020;50.722;-1.944;2023-11-19T00:51:08;100587.65;;;12.46;99.89
81641;BME280;74020;50.722;-1.944;2023-11-19T00:53:33;100583.56;;;12.48;100.00
81641;BME280;74020;50.722;-1.944;2023-11-19T00:55:59;100581.33;;;12.59;100.00
81641;BME280;74020;50.722;-1.944;2023-11-19T00:58:24;100578.68;;;12.64;100.00
81641;BME280;74020;50.722;-1.944;2023-11-19T01:00:49;100578.65;;;12.60;100.00
81641;BME280;74020;50.722;-1.944;2023-11-19T01:03:15;100573.55;;;12.60;100.00
81641;BME280;74020;50.722;-1.944;2023-11-19T01:05:41;100565.10;;;12.64;100.00
81641;BME280;74020;50.722;-1.944;2023-11-19T01:08:06;100561.59;;;12.71;100.00
81641;BME280;74020;50.722;-1.944;2023-11-19T01:10:31;100558.36;;;12.72;100.00
81641;BME280;74020;50.722;-1.944;2023-11-19T01:12:57;100565.59;;;12.59;100.00
81641;BME280;74020;50.722;-1.944;2023-11-19T01:15:23;100571.93;;;12.68;100.00
81641;BME280;74020;50.722;-1.944;2023-11-19T01:17:48;100571.83;;;12.72;100.00
81641;BME280;74020;50.722;-1.944;2023-11-19T01:20:13;100570.78;;;12.85;99.22
81641;BME280;74020;50.722;-1.944;2023-11-19T01:22:38;100572.79;;;12.84;98.36
81641;BME280;74020;50.722;-1.944;2023-11-19T01:25:04;100577.77;;;12.86;97.69
81641;BME280;74020;50.722;-1.944;2023-11-19T01:27:29;100575.04;;;12.88;97.33
81641;BME280;74020;50.722;-1.944;2023-11-19T01:29:54;100583.25;;;12.88;97.02
81641;BME280;74020;50.722;-1.944;2023-11-19T01:32:20;100584.83;;;12.89;96.58
81641;BME280;74020;50.722;-1.944;2023-11-19T01:34:45;100586.49;;;12.83;96.72
81641;BME280;74020;50.722;-1.944;2023-11-19T01:37:10;100581.98;;;12.97;95.70
81641;BME280;74020;50.722;-1.944;2023-11-19T01:39:36;100582.29;;;12.79;97.07
81641;BME280;74020;50.722;-1.944;2023-11-19T01:42:01;100583.43;;;12.84;96.38
81641;BME280;74020;50.722;-1.944;2023-11-19T01:44:27;100579.03;;;12.81;96.67
81641;BME280;74020;50.722;-1.944;2023-11-19T01:46:53;100580.48;;;12.90;96.55
81641;BME280;74020;50.722;-1.944;2023-11-19T01:49:20;100578.31;;;13.01;95.96
81641;BME280;74020;50.722;-1.944;2023-11-19T01:51:44;100578.05;;;12.82;97.05
81641;BME280;74020;50.722;-1.944;2023-11-19T01:54:10;100567.26;;;12.82;96.86
81641;BME280;74020;50.722;-1.944;2023-11-19T01:56:35;100570.39;;;12.87;96.12
81641;BME280;74020;50.722;-1.944;2023-11-19T01:59:01;100571.44;;;12.86;96.22
81641;BME280;74020;50.722;-1.944;2023-11-19T02:01:27;100570.09;;;12.87;96.52
81641;BME280;74020;50.722;-1.944;2023-11-19T02:03:52;100571.11;;;13.00;95.12
81641;BME280;74020;50.722;-1.944;2023-11-19T02:06:18;100568.34;;;13.06;95.22
81641;BME280;74020;50.722;-1.944;2023-11-19T02:08:43;100567.50;;;13.05;95.18
81641;BME280;74020;50.722;-1.944;2023-11-19T02:11:08;100560.79;;;12.96;95.92
81641;BME280;74020;50.722;-1.944;2023-11-19T02:13:34;100558.00;;;12.80;96.98
81641;BME280;74020;50.722;-1.944;2023-11-19T02:15:59;100557.33;;;13.01;96.02
81641;BME280;74020;50.722;-1.944;2023-11-19T02:18:27;100550.44;;;12.87;96.29
81641;BME280;74020;50.722;-1.944;2023-11-19T02:20:51;100540.53;;;12.84;96.53
81641;BME280;74020;50.722;-1.944;2023-11-19T02:23:17;100542.87;;;12.79;96.68
81641;BME280;74020;50.722;-1.944;2023-11-19T02:25:43;100534.25;;;12.61;97.73
81641;BME280;74020;50.722;-1.944;2023-11-19T02:28:07;100521.55;;;12.81;96.35
81641;BME280;74020;50.722;-1.944;2023-11-19T02:30:33;100510.29;;;12.80;96.49
81641;BME280;74020;50.722;-1.944;2023-11-19T02:32:59;100498.96;;;12.71;97.39
81641;BME280;74020;50.722;-1.944;2023-11-19T02:35:24;100501.54;;;12.57;98.31
81641;BME280;74020;50.722;-1.944;2023-11-19T02:37:49;100502.53;;;12.53;98.99
81641;BME280;74020;50.722;-1.944;2023-11-19T02:40:15;100507.48;;;12.63;97.97
81641;BME280;74020;50.722;-1.944;2023-11-19T02:42:40;100511.43;;;12.65;97.74
81641;BME280;74020;50.722;-1.944;2023-11-19T02:45:05;100509.65;;;12.63;98.13
81641;BME280;74020;50.722;-1.944;2023-11-19T02:47:30;100510.26;;;12.64;98.15
81641;BME280;74020;50.722;-1.944;2023-11-19T02:49:56;100503.87;;;12.64;98.15
81641;BME280;74020;50.722;-1.944;2023-11-19T02:52:21;100504.38;;;12.71;97.50
81641;BME280;74020;50.722;-1.944;2023-11-19T02:54:47;100497.71;;;12.70;97.24
81641;BME280;74020;50.722;-1.944;2023-11-19T02:57:12;100495.95;;;12.84;96.39
81641;BME280;74020;50.722;-1.944;2023-11-19T02:59:39;100497.92;;;12.79;96.74
81641;BME280;74020;50.722;-1.944;2023-11-19T03:02:03;100498.84;;;12.72;97.04
81641;BME280;74020;50.722;-1.944;2023-11-19T03:04:28;100493.64;;;12.74;96.75
81641;BME280;74020;50.722;-1.944;2023-11-19T03:06:54;100499.53;;;12.82;96.59
81641;BME280;74020;50.722;-1.944;2023-11-19T03:09:19;100497.44;;;12.84;96.72
81641;BME280;74020;50.722;-1.944;2023-11-19T03:11:45;100497.42;;;12.91;95.73
81641;BME280;74020;50.722;-1.944;2023-11-19T03:14:11;100504.31;;;12.82;95.35
81641;BME280;74020;50.722;-1.944;2023-11-19T03:16:36;100507.70;;;12.86;95.44
81641;BME280;74020;50.722;-1.944;2023-11-19T03:19:01;100509.96;;;12.82;94.55
81641;BME280;74020;50.722;-1.944;2023-11-19T03:21:28;100512.24;;;12.79;94.76
81641;BME280;74020;50.722;-1.944;2023-11-19T03:23:51;100520.61;;;12.67;95.57
81641;BME280;74020;50.722;-1.944;2023-11-19T03:26:17;100518.19;;;12.60;96.02
81641;BME280;74020;50.722;-1.944;2023-11-19T03:28:42;100516.26;;;12.76;94.67
81641;BME280;74020;50.722;-1.944;2023-11-19T03:31:07;100513.27;;;12.77;94.66
81641;BME280;74020;50.722;-1.944;2023-11-19T03:33:33;100511.51;;;12.68;94.81
81641;BME280;74020;50.722;-1.944;2023-11-19T03:35:58;100511.36;;;12.60;95.32
81641;BME280;74020;50.722;-1.944;2023-11-19T03:38:24;100508.68;;;12.63;95.70
81641;BME280;74020;50.722;-1.944;2023-11-19T03:40:49;100508.08;;;12.77;94.36
81641;BME280;74020;50.722;-1.944;2023-11-19T03:43:14;100513.81;;;12.71;94.74
81641;BME280;74020;50.722;-1.944;2023-11-19T03:45:39;100502.52;;;12.63;94.47
81641;BME280;74020;50.722;-1.944;2023-11-19T03:48:05;100511.16;;;12.63;94.58
81641;BME280;74020;50.722;-1.944;2023-11-19T03:50:30;100509.23;;;12.76;93.58
81641;BME280;74020;50.722;-1.944;2023-11-19T03:52:56;100499.39;;;12.73;93.92
81641;BME280;74020;50.722;-1.944;2023-11-19T03:55:21;100495.19;;;12.75;93.70
81641;BME280;74020;50.722;-1.944;2023-11-19T03:57:46;100494.12;;;12.61;94.52
81641;BME280;74020;50.722;-1.944;2023-11-19T04:00:12;100493.00;;;12.66;94.13
81641;BME280;74020;50.722;-1.944;2023-11-19T04:02:37;100481.84;;;12.68;94.09
81641;BME280;74020;50.722;-1.944;2023-11-19T04:05:03;100483.95;;;12.73;93.47
81641;BME280;74020;50.722;-1.944;2023-11-19T04:07:28;100489.69;;;12.65;94.18
81641;BME280;74020;50.722;-1.944;2023-11-19T04:09:53;100490.87;;;12.54;95.07
81641;BME280;74020;50.722;-1.944;2023-11-19T04:12:19;100480.89;;;12.61;94.52
81641;BME280;74020;50.722;-1.944;2023-11-19T04:14:44;100481.32;;;12.71;94.05
81641;BME280;74020;50.722;-1.944;2023-11-19T04:17:09;100481.73;;;12.59;95.00
81641;BME280;74020;50.722;-1.944;2023-11-19T04:19:35;100487.13;;;12.64;95.09
81641;BME280;74020;50.722;-1.944;2023-11-19T04:22:01;100487.66;;;12.70;95.07
81641;BME280;74020;50.722;-1.944;2023-11-19T04:24:26;100488.08;;;12.78;94.70
81641;BME280;74020;50.722;-1.944;2023-11-19T04:26:52;100480.17;;;12.71;95.44
81641;BME280;74020;50.722;-1.944;2023-11-19T04:29:17;100478.48;;;12.65;95.73
81641;BME280;74020;50.722;-1.944;2023-11-19T04:31:42;100482.46;;;12.71;95.76
81641;BME280;74020;50.722;-1.944;2023-11-19T04:34:07;100481.40;;;12.87;94.97
81641;BME280;74020;50.722;-1.944;2023-11-19T04:36:32;100486.28;;;12.90;94.92
81641;BME280;74020;50.722;-1.944;2023-11-19T04:38:58;100483.67;;;12.91;94.90
81641;BME280;74020;50.722;-1.944;2023-11-19T04:41:24;100491.22;;;12.92;94.67
81641;BME280;74020;50.722;-1.944;2023-11-19T04:43:49;100492.88;;;12.85;94.20
81641;BME280;74020;50.722;-1.944;2023-11-19T04:46:14;100487.56;;;12.89;93.92
81641;BME280;74020;50.722;-1.944;2023-11-19T04:48:40;100484.02;;;12.73;94.80
81641;BME280;74020;50.722;-1.944;2023-11-19T04:51:06;100487.33;;;12.91;93.98
81641;BME280;74020;50.722;-1.944;2023-11-19T04:53:31;100487.91;;;12.96;94.12
81641;BME280;74020;50.722;-1.944;2023-11-19T04:55:56;100490.56;;;13.00;93.69
81641;BME280;74020;50.722;-1.944;2023-11-19T04:58:22;100490.59;;;12.97;93.62
81641;BME280;74020;50.722;-1.944;2023-11-19T05:00:47;100491.29;;;12.83;95.07
81641;BME280;74020;50.722;-1.944;2023-11-19T05:03:13;100490.66;;;12.93;94.53
81641;BME280;74020;50.722;-1.944;2023-11-19T05:05:38;100476.61;;;13.11;93.37
81641;BME280;74020;50.722;-1.944;2023-11-19T05:08:03;100485.78;;;13.06;94.82
81641;BME280;74020;50.722;-1.944;2023-11-19T05:10:29;100499.43;;;12.91;96.94
81641;BME280;74020;50.722;-1.944;2023-11-19T05:12:54;100512.00;;;12.55;100.00
81641;BME280;74020;50.722;-1.944;2023-11-19T05:15:20;100494.00;;;11.94;100.00
81641;BME280;74020;50.722;-1.944;2023-11-19T05:17:45;100485.86;;;11.78;100.00
81641;BME280;74020;50.722;-1.944;2023-11-19T05:20:11;100492.91;;;11.63;100.00
81641;BME280;74020;50.722;-1.944;2023-11-19T05:22:37;100493.67;;;11.57;100.00
81641;BME280;74020;50.722;-1.944;2023-11-19T05:25:02;100494.54;;;11.42;100.00
81641;BME280;74020;50.722;-1.944;2023-11-19T05:27:28;100493.65;;;11.45;100.00
81641;BME280;74020;50.722;-1.944;2023-11-19T05:29:54;100497.59;;;11.45;100.00
81641;BME280;74020;50.722;-1.944;2023-11-19T05:32:19;100501.78;;;11.38;100.00
81641;BME280;74020;50.722;-1.944;2023-11-19T05:34:45;100504.12;;;11.38;100.00
81641;BME280;74020;50.722;-1.944;2023-11-19T05:37:10;100497.67;;;11.33;100.00
81641;BME280;74020;50.722;-1.944;2023-11-19T05:39:35;100492.21;;;11.28;100.00
81641;BME280;74020;50.722;-1.944;2023-11-19T05:42:01;100503.44;;;11.16;100.00
81641;BME280;74020;50.722;-1.944;2023-11-19T05:44:26;100501.08;;;11.22;100.00
81641;BME280;74020;50.722;-1.944;2023-11-19T05:46:51;100497.06;;;11.24;100.00
81641;BME280;74020;50.722;-1.944;2023-11-19T05:49:17;100493.62;;;11.19;100.00
81641;BME280;74020;50.722;-1.944;2023-11-19T05:51:42;100498.82;;;11.22;100.00
81641;BME280;74020;50.722;-1.944;2023-11-19T05:54:08;100487.51;;;11.18;100.00
81641;BME280;74020;50.722;-1.944;2023-11-19T05:56:33;100481.57;;;11.31;100.00
81641;BME280;74020;50.722;-1.944;2023-11-19T05:58:58;100480.31;;;11.31;100.00
81641;BME280;74020;50.722;-1.944;2023-11-19T06:01:23;100479.39;;;11.37;100.00
81641;BME280;74020;50.722;-1.944;2023-11-19T06:03:48;100481.60;;;11.40;100.00
81641;BME280;74020;50.722;-1.944;2023-11-19T06:06:13;100477.55;;;11.43;100.00
81641;BME280;74020;50.722;-1.944;2023-11-19T06:08:39;100478.03;;;11.49;100.00
81641;BME280;74020;50.722;-1.944;2023-11-19T06:11:04;100480.56;;;11.57;100.00
81641;BME280;74020;50.722;-1.944;2023-11-19T06:13:30;100476.26;;;11.54;100.00
81641;BME280;74020;50.722;-1.944;2023-11-19T06:15:55;100475.04;;;11.50;100.00
81641;BME280;74020;50.722;-1.944;2023-11-19T06:18:20;100468.97;;;11.53;100.00
81641;BME280;74020;50.722;-1.944;2023-11-19T06:20:46;100470.11;;;11.57;100.00
81641;BME280;74020;50.722;-1.944;2023-11-19T06:23:12;100461.45;;;11.53;100.00
81641;BME280;74020;50.722;-1.944;2023-11-19T06:25:37;100470.73;;;11.55;100.00
81641;BME280;74020;50.722;-1.944;2023-11-19T06:28:03;100464.46;;;11.54;100.00
81641;BME280;74020;50.722;-1.944;2023-11-19T06:30:27;100465.39;;;11.56;99.99
81641;BME280;74020;50.722;-1.944;2023-11-19T06:32:53;100468.97;;;11.59;98.82
81641;BME280;74020;50.722;-1.944;2023-11-19T06:35:18;100474.95;;;11.50;100.00
81641;BME280;74020;50.722;-1.944;2023-11-19T06:37:44;100475.58;;;11.52;99.82
81641;BME280;74020;50.722;-1.944;2023-11-19T06:40:11;100472.71;;;11.55;99.54
81641;BME280;74020;50.722;-1.944;2023-11-19T06:42:36;100472.55;;;11.40;100.00
81641;BME280;74020;50.722;-1.944;2023-11-19T06:45:02;100463.27;;;11.50;99.95
81641;BME280;74020;50.722;-1.944;2023-11-19T06:47:28;100460.84;;;11.49;100.00
81641;BME280;74020;50.722;-1.944;2023-11-19T06:49:53;100457.19;;;11.45;100.00
81641;BME280;74020;50.722;-1.944;2023-11-19T06:52:18;100451.43;;;11.46;99.81
81641;BME280;74020;50.722;-1.944;2023-11-19T06:54:44;100454.03;;;11.49;99.09
81641;BME280;74020;50.722;-1.944;2023-11-19T06:57:11;100455.44;;;11.53;98.91
81641;BME280;74020;50.722;-1.944;2023-11-19T06:59:35;100450.86;;;11.55;98.41
81641;BME280;74020;50.722;-1.944;2023-11-19T07:02:00;100463.01;;;11.52;98.54
81641;BME280;74020;50.722;-1.944;2023-11-19T07:04:25;100461.94;;;11.52;98.35
81641;BME280;74020;50.722;-1.944;2023-11-19T07:06:51;100455.56;;;11.55;98.31
81641;BME280;74020;50.722;-1.944;2023-11-19T07:09:16;100450.44;;;11.58;98.04
81641;BME280;74020;50.722;-1.944;2023-11-19T07:14:07;100446.73;;;11.57;98.58
81641;BME280;74020;50.722;-1.944;2023-11-19T07:16:32;100448.50;;;11.64;98.00
81641;BME280;74020;50.722;-1.944;2023-11-19T07:18:57;100441.45;;;11.67;97.79
81641;BME280;74020;50.722;-1.944;2023-11-19T07:21:23;100444.91;;;11.67;98.27
81641;BME280;74020;50.722;-1.944;2023-11-19T07:23:48;100452.43;;;11.73;98.44
81641;BME280;74020;50.722;-1.944;2023-11-19T07:26:14;100446.12;;;11.71;99.32
81641;BME280;74020;50.722;-1.944;2023-11-19T07:28:40;100457.19;;;11.81;98.30
81641;BME280;74020;50.722;-1.944;2023-11-19T07:31:06;100443.70;;;11.88;97.55
81641;BME280;74020;50.722;-1.944;2023-11-19T07:33:31;100439.57;;;11.82;97.70
81641;BME280;74020;50.722;-1.944;2023-11-19T07:35:56;100440.71;;;11.83;97.82
81641;BME280;74020;50.722;-1.944;2023-11-19T07:38:22;100441.22;;;11.89;97.59
81641;BME280;74020;50.722;-1.944;2023-11-19T07:40:47;100434.70;;;11.98;96.75
81641;BME280;74020;50.722;-1.944;2023-11-19T07:43:12;100435.66;;;12.01;96.88
81641;BME280;74020;50.722;-1.944;2023-11-19T07:45:37;100435.34;;;12.05;96.06
81641;BME280;74020;50.722;-1.944;2023-11-19T07:48:03;100440.66;;;12.01;96.40
81641;BME280;74020;50.722;-1.944;2023-11-19T07:50:28;100464.48;;;12.01;96.31
81641;BME280;74020;50.722;-1.944;2023-11-19T07:52:54;100460.08;;;12.06;96.30
81641;BME280;74020;50.722;-1.944;2023-11-19T07:55:19;100469.13;;;12.01;95.71
81641;BME280;74020;50.722;-1.944;2023-11-19T07:57:45;100463.30;;;11.98;94.80
81641;BME280;74020;50.722;-1.944;2023-11-19T08:00:12;100473.16;;;12.09;93.33
81641;BME280;74020;50.722;-1.944;2023-11-19T08:02:37;100467.70;;;12.09;93.28
81641;BME280;74020;50.722;-1.944;2023-11-19T08:05:03;100465.51;;;12.08;93.32
81641;BME280;74020;50.722;-1.944;2023-11-19T08:07:28;100471.66;;;12.04;93.15
81641;BME280;74020;50.722;-1.944;2023-11-19T08:09:54;100470.67;;;12.02;91.89
81641;BME280;74020;50.722;-1.944;2023-11-19T08:12:19;100471.49;;;12.08;90.79
81641;BME280;74020;50.722;-1.944;2023-11-19T08:14:44;100486.15;;;12.06;91.06
81641;BME280;74020;50.722;-1.944;2023-11-19T08:17:09;100472.66;;;12.19;89.94
81641;BME280;74020;50.722;-1.944;2023-11-19T08:19:35;100475.94;;;12.19;90.63
81641;BME280;74020;50.722;-1.944;2023-11-19T08:22:00;100480.49;;;12.32;88.18
81641;BME280;74020;50.722;-1.944;2023-11-19T08:24:25;100480.56;;;12.39;88.67
81641;BME280;74020;50.722;-1.944;2023-11-19T08:26:50;100491.14;;;12.49;88.20
81641;BME280;74020;50.722;-1.944;2023-11-19T08:29:16;100491.66;;;12.61;87.94
81641;BME280;74020;50.722;-1.944;2023-11-19T08:31:41;100494.35;;;12.66;88.30
81641;BME280;74020;50.722;-1.944;2023-11-19T08:34:06;100481.83;;;12.61;88.88
81641;BME280;74020;50.722;-1.944;2023-11-19T08:36:31;100498.51;;;12.77;88.58
81641;BME280;74020;50.722;-1.944;2023-11-19T08:38:56;100491.86;;;12.79;89.18
81641;BME280;74020;50.722;-1.944;2023-11-19T08:41:22;100487.91;;;12.85;89.23
81641;BME280;74020;50.722;-1.944;2023-11-19T08:43:48;100496.15;;;12.76;89.81
81641;BME280;74020;50.722;-1.944;2023-11-19T08:46:13;100491.41;;;12.90;89.30
81641;BME280;74020;50.722;-1.944;2023-11-19T08:48:39;100491.19;;;12.83;90.29
81641;BME280;74020;50.722;-1.944;2023-11-19T08:51:04;100491.93;;;12.86;90.15
81641;BME280;74020;50.722;-1.944;2023-11-19T08:53:29;100465.96;;;12.77;90.18
81641;BME280;74020;50.722;-1.944;2023-11-19T08:55:54;100483.98;;;12.80;90.71
81641;BME280;74020;50.722;-1.944;2023-11-19T08:58:19;100486.77;;;12.86;89.82
81641;BME280;74020;50.722;-1.944;2023-11-19T09:00:45;100478.69;;;12.90;90.45
81641;BME280;74020;50.722;-1.944;2023-11-19T09:03:10;100485.87;;;12.96;89.18
81641;BME280;74020;50.722;-1.944;2023-11-19T09:05:36;100484.86;;;12.98;87.84
81641;BME280;74020;50.722;-1.944;2023-11-19T09:08:01;100484.54;;;12.97;88.20
81641;BME280;74020;50.722;-1.944;2023-11-19T09:10:26;100484.63;;;13.01;87.91
81641;BME280;74020;50.722;-1.944;2023-11-19T09:12:51;100456.56;;;12.92;86.94
81641;BME280;74020;50.722;-1.944;2023-11-19T09:15:16;100483.11;;;13.03;86.81
81641;BME280;74020;50.722;-1.944;2023-11-19T09:17:42;100473.39;;;12.89;87.54
81641;BME280;74020;50.722;-1.944;2023-11-19T09:20:08;100474.20;;;12.97;87.19
81641;BME280;74020;50.722;-1.944;2023-11-19T09:22:33;100470.06;;;12.95;87.01
81641;BME280;74020;50.722;-1.944;2023-11-19T09:24:59;100469.56;;;12.84;87.91
81641;BME280;74020;50.722;-1.944;2023-11-19T09:27:25;100469.05;;;12.96;88.32
81641;BME280;74020;50.722;-1.944;2023-11-19T09:29:50;100459.31;;;12.95;87.48
81641;BME280;74020;50.722;-1.944;2023-11-19T09:32:15;100466.30;;;12.98;87.87
81641;BME280;74020;50.722;-1.944;2023-11-19T09:34:40;100473.61;;;12.90;88.43
81641;BME280;74020;50.722;-1.944;2023-11-19T09:37:05;100475.51;;;13.02;88.38
81641;BME280;74020;50.722;-1.944;2023-11-19T09:39:31;100459.34;;;13.03;87.36
81641;BME280;74020;50.722;-1.944;2023-11-19T09:41:56;100454.42;;;12.88;88.44
81641;BME280;74020;50.722;-1.944;2023-11-19T09:44:21;100456.77;;;12.98;87.45
81641;BME280;74020;50.722;-1.944;2023-11-19T09:46:47;100465.42;;;12.99;88.11
81641;BME280;74020;50.722;-1.944;2023-11-19T09:49:13;100474.06;;;13.11;88.94
81641;BME280;74020;50.722;-1.944;2023-11-19T09:51:37;100470.60;;;13.21;88.30
81641;BME280;74020;50.722;-1.944;2023-11-19T09:54:03;100455.55;;;13.23;86.34
81641;BME280;74020;50.722;-1.944;2023-11-19T09:56:29;100465.66;;;13.24;86.76
81641;BME280;74020;50.722;-1.944;2023-11-19T09:58:54;100458.21;;;13.23;86.38
81641;BME280;74020;50.722;-1.944;2023-11-19T10:01:19;100457.99;;;13.07;87.05
81641;BME280;74020;50.722;-1.944;2023-11-19T10:03:47;100456.53;;;13.20;86.63
81641;BME280;74020;50.722;-1.944;2023-11-19T10:06:11;100458.88;;;13.28;85.94
81641;BME280;74020;50.722;-1.944;2023-11-19T10:08:37;100462.20;;;13.26;86.56
81641;BME280;74020;50.722;-1.944;2023-11-19T10:11:01;100450.06;;;13.34;86.75
81641;BME280;74020;50.722;-1.944;2023-11-19T10:13:27;100465.03;;;13.36;86.97
81641;BME280;74020;50.722;-1.944;2023-11-19T10:15:52;100461.14;;;13.41;85.96
81641;BME280;74020;50.722;-1.944;2023-11-19T10:18:17;100459.87;;;13.21;86.70
81641;BME280;74020;50.722;-1.944;2023-11-19T10:20:42;100459.46;;;13.43;85.93
81641;BME280;74020;50.722;-1.944;2023-11-19T10:23:08;100453.37;;;13.25;87.39
81641;BME280;74020;50.722;-1.944;2023-11-19T10:25:34;100448.27;;;13.30;86.53
81641;BME280;74020;50.722;-1.944;2023-11-19T10:27:59;100456.00;;;13.36;86.58
81641;BME280;74020;50.722;-1.944;2023-11-19T10:30:26;100421.13;;;13.33;86.68
81641;BME280;74020;50.722;-1.944;2023-11-19T10:33:04;100450.55;;;13.31;86.89
81641;BME280;74020;50.722;-1.944;2023-11-19T10:35:16;100449.40;;;13.35;86.59
81641;BME280;74020;50.722;-1.944;2023-11-19T10:37:42;100457.33;;;13.34;87.36
81641;BME280;74020;50.722;-1.944;2023-11-19T10:40:09;100441.68;;;13.19;87.79
81641;BME280;74020;50.722;-1.944;2023-11-19T10:42:33;100442.27;;;13.21;88.87
81641;BME280;74020;50.722;-1.944;2023-11-19T10:44:58;100441.10;;;13.25;88.79
81641;BME280;74020;50.722;-1.944;2023-11-19T10:47:23;100444.57;;;13.13;89.92
81641;BME280;74020;50.722;-1.944;2023-11-19T10:49:48;100453.75;;;13.39;88.59
81641;BME280;74020;50.722;-1.944;2023-11-19T10:52:18;100448.77;;;13.47;88.43
81641;BME280;74020;50.722;-1.944;2023-11-19T10:54:42;100450.20;;;13.44;88.79
81641;BME280;74020;50.722;-1.944;2023-11-19T10:57:05;100453.22;;;13.45;89.48
81641;BME280;74020;50.722;-1.944;2023-11-19T10:59:31;100455.67;;;13.42;89.85
81641;BME280;74020;50.722;-1.944;2023-11-19T11:01:56;100456.55;;;13.45;89.00
81641;BME280;74020;50.722;-1.944;2023-11-19T11:04:23;100461.70;;;13.22;91.18
81641;BME280;74020;50.722;-1.944;2023-11-19T11:06:47;100460.53;;;13.27;91.36
81641;BME280;74020;50.722;-1.944;2023-11-19T11:09:13;100458.28;;;13.20;91.61
81641;BME280;74020;50.722;-1.944;2023-11-19T11:11:38;100468.38;;;13.24;91.44
81641;BME280;74020;50.722;-1.944;2023-11-19T11:14:03;100452.00;;;13.36;91.23
81641;BME280;74020;50.722;-1.944;2023-11-19T11:16:29;100455.94;;;13.27;92.76
81641;BME280;74020;50.722;-1.944;2023-11-19T11:18:54;100458.39;;;13.13;94.37
81641;BME280;74020;50.722;-1.944;2023-11-19T11:21:24;100454.82;;;13.11;96.85
81641;BME280;74020;50.722;-1.944;2023-11-19T11:26:25;100467.73;;;12.99;99.81
81641;BME280;74020;50.722;-1.944;2023-11-19T11:28:39;100456.08;;;13.07;97.87
81641;BME280;74020;50.722;-1.944;2023-11-19T11:31:12;100458.14;;;12.82;98.01
81641;BME280;74020;50.722;-1.944;2023-11-19T11:33:36;100455.71;;;12.77;97.76
81641;BME280;74020;50.722;-1.944;2023-11-19T11:36:09;100451.29;;;12.77;98.24
81641;BME280;74020;50.722;-1.944;2023-11-19T11:38:21;100445.36;;;12.73;99.10
81641;BME280;74020;50.722;-1.944;2023-11-19T11:40:42;100443.85;;;12.73;98.69
81641;BME280;74020;50.722;-1.944;2023-11-19T11:45:36;100454.92;;;12.76;98.50
81641;BME280;74020;50.722;-1.944;2023-11-19T11:48:09;100450.45;;;12.86;97.01
81641;BME280;74020;50.722;-1.944;2023-11-19T11:50:23;100452.22;;;12.94;95.97
81641;BME280;74020;50.722;-1.944;2023-11-19T11:55:14;100444.69;;;12.99;95.19
81641;BME280;74020;50.722;-1.944;2023-11-19T11:57:39;100435.84;;;13.09;92.91
81641;BME280;74020;50.722;-1.944;2023-11-19T12:00:11;100447.70;;;13.21;92.73
81641;BME280;74020;50.722;-1.944;2023-11-19T12:02:30;100439.11;;;13.34;91.24
81641;BME280;74020;50.722;-1.944;2023-11-19T12:04:55;100433.67;;;13.35;91.79
81641;BME280;74020;50.722;-1.944;2023-11-19T12:07:21;100425.04;;;13.44;91.15
81641;BME280;74020;50.722;-1.944;2023-11-19T12:09:51;100439.41;;;13.52;91.04
81641;BME280;74020;50.722;-1.944;2023-11-19T12:12:18;100418.83;;;13.65;90.98
81641;BME280;74020;50.722;-1.944;2023-11-19T12:17:04;100412.15;;;13.71;90.85
81641;BME280;74020;50.722;-1.944;2023-11-19T12:19:28;100414.42;;;13.73;90.40
81641;BME280;74020;50.722;-1.944;2023-11-19T12:21:54;100413.71;;;13.75;90.59
81641;BME280;74020;50.722;-1.944;2023-11-19T12:24:19;100417.70;;;13.71;91.53
81641;BME280;74020;50.722;-1.944;2023-11-19T12:26:45;100410.54;;;13.63;90.48
81641;BME280;74020;50.722;-1.944;2023-11-19T12:29:10;100416.65;;;13.71;90.08
81641;BME280;74020;50.722;-1.944;2023-11-19T12:31:35;100417.51;;;13.49;90.42
81641;BME280;74020;50.722;-1.944;2023-11-19T12:34:05;100414.74;;;13.51;89.99
81641;BME280;74020;50.722;-1.944;2023-11-19T12:36:26;100420.40;;;13.37;91.28
81641;BME280;74020;50.722;-1.944;2023-11-19T12:38:51;100421.81;;;13.41;91.41